Bow Heron — DYTN — position and weather

sailwx.info

Track history (hours):
 
Tides and Currents Weather Stations Pressure Air Temp Water Temp Dewpoint Dewpoint Depression Visibility Wind Speed Wind Dir Waves Ship Positions

Bow Heron

Last reported at 2016-Sep-26 20:28 UTC. Time now 2016-Sep-26 22:33 UTC.
Position N 51°16' E 004°13'.

Length 174 m; draft 9.6 m.

Type: Ship (hazmat cat A). MMSI: 548779000.

Date/timePositionNaut miles runAvg speedWind from/ knotsBaromVisibWave heightAir tempDewpointWater temp
2016-Sep-26 20:28N 51°16' E 004°13'0 0.0
2016-Sep-26 15:25N 51°16' E 004°13'0 0.0
2016-Sep-26 13:31N 51°16' E 004°13'2 0.9
2016-Sep-26 11:33N 51°17' E 004°15'21 6.9
2016-Sep-26 08:33N 51°23' E 003°43'49 8.2
2016-Sep-26 02:33N 51°21' E 002°24'1212.0
2016-Sep-26 01:33N 51°15' E 002°08'1414.3
2016-Sep-26 00:33N 51°08' E 001°48'21414.9
2016-Sep-25 10:10N 49°40' W 003°18'8214.3
2016-Sep-25 04:26N 48°59' W 005°06'62014.5
2016-Sep-23 09:33N 39°15' W 009°57'4314.5
2016-Sep-23 06:33N 38°31' W 009°53'2814.2
2016-Sep-23 04:33N 38°04' W 009°45'1414.5
2016-Sep-23 03:33N 37°50' W 009°41'1514.9
2016-Sep-23 02:34N 37°35' W 009°36'1514.8
2016-Sep-23 01:31N 37°20' W 009°32'1514.8
2016-Sep-23 00:32N 37°06' W 009°28'31312.8
2016-Sep-22 00:07N 36°12' W 003°05'915.4
2016-Sep-21 23:34N 36°13' W 002°54'1615.5
2016-Sep-21 22:31N 36°15' W 002°34'4214.1
2016-Sep-21 19:33N 36°30' W 001°46'23714.8
2016-Sep-21 03:33N 39°42' E 001°11'1615.9
2016-Sep-21 02:31N 39°57' E 001°21'91 2.8
2016-Sep-19 18:12N 41°20' E 002°09'0 0.0
2016-Sep-19 16:30N 41°20' E 002°09'0 0.0
2016-Sep-19 11:18N 41°20' E 002°09'1 0.5
2016-Sep-19 09:17N 41°19' E 002°10'17 9.4
2016-Sep-19 07:28N 41°09' E 002°28'1414.6
2016-Sep-19 06:33N 41°01' E 002°43'49814.0
2016-Sep-17 18:56N 37°04' E 012°07'7714.3
2016-Sep-17 13:34N 36°40' E 013°38'1414.4
2016-Sep-17 12:33N 36°36' E 013°55'3015.0
2016-Sep-17 10:32N 36°27' E 014°31'9514.9
2016-Sep-17 04:10N 35°60' E 016°24'  
Track history (hours):
 
Tides and Currents Weather Stations Pressure Air Temp Water Temp Dewpoint Dewpoint Depression Visibility Wind Speed Wind Dir Waves Ship Positions

Bow Heron

Last reported at 2016-Sep-26 20:28 UTC. Time now 2016-Sep-26 22:33 UTC.
Position N 51°16' E 004°13'.

Length 174 m; draft 9.6 m.

Type: Ship (hazmat cat A). MMSI: 548779000.

Date/timePositionNaut miles runAvg speedWind from/ knotsBaromVisibWave heightAir tempDewpointWater temp
2016-Sep-26 20:28N 51°16' E 004°13'0 0.0
2016-Sep-26 15:25N 51°16' E 004°13'0 0.0
2016-Sep-26 13:31N 51°16' E 004°13'2 0.9
2016-Sep-26 11:33N 51°17' E 004°15'21 6.9
2016-Sep-26 08:33N 51°23' E 003°43'49 8.2
2016-Sep-26 02:33N 51°21' E 002°24'1212.0
2016-Sep-26 01:33N 51°15' E 002°08'1414.3
2016-Sep-26 00:33N 51°08' E 001°48'21414.9
2016-Sep-25 10:10N 49°40' W 003°18'8214.3
2016-Sep-25 04:26N 48°59' W 005°06'62014.5
2016-Sep-23 09:33N 39°15' W 009°57'4314.5
2016-Sep-23 06:33N 38°31' W 009°53'2814.2
2016-Sep-23 04:33N 38°04' W 009°45'1414.5
2016-Sep-23 03:33N 37°50' W 009°41'1514.9
2016-Sep-23 02:34N 37°35' W 009°36'1514.8
2016-Sep-23 01:31N 37°20' W 009°32'1514.8
2016-Sep-23 00:32N 37°06' W 009°28'31312.8
2016-Sep-22 00:07N 36°12' W 003°05'915.4
2016-Sep-21 23:34N 36°13' W 002°54'1615.5
2016-Sep-21 22:31N 36°15' W 002°34'4214.1
2016-Sep-21 19:33N 36°30' W 001°46'23714.8
2016-Sep-21 03:33N 39°42' E 001°11'1615.9
2016-Sep-21 02:31N 39°57' E 001°21'91 2.8
2016-Sep-19 18:12N 41°20' E 002°09'0 0.0
2016-Sep-19 16:30N 41°20' E 002°09'0 0.0
2016-Sep-19 11:18N 41°20' E 002°09'1 0.5
2016-Sep-19 09:17N 41°19' E 002°10'17 9.4
2016-Sep-19 07:28N 41°09' E 002°28'1414.6
2016-Sep-19 06:33N 41°01' E 002°43'49814.0
2016-Sep-17 18:56N 37°04' E 012°07'7714.3
2016-Sep-17 13:34N 36°40' E 013°38'1414.4
2016-Sep-17 12:33N 36°36' E 013°55'3015.0
2016-Sep-17 10:32N 36°27' E 014°31'9514.9
2016-Sep-17 04:10N 35°60' E 016°24'  

Dump ship's entire track history